• Join FlightAware (Why Join?)
  • Login
  • US Flag 
08:28PM EDT


 

Airport Tracker/Info


-or-


 

Live Flight TrackerFlight Track Log ✈ CTL13 ✈ 06-May-2013 ✈ KBKL - KEYE

Flight Track Log - Related Links

Times and Time Zones

All times are in EDT time to prevent confusion due to time zone crossing. See the CTL13 flight status page for this flight to view local times or setup timezone preferences in your user account.

Time Position Orientation Groundspeed Altitude Reporting Facility
EDT Latitude Longitude Course Direction KTS MPH feet Rate Location/Type
06:45PM 41.5233 -81.6731 346° North 110 127 1,000  Level Cleveland Center
06:46PM 41.5689 -81.6878 346° North 145 167 2,400 1,020 Climbing Cleveland Center
06:47PM 41.6022 -81.7106 333° Northwest 144 166 3,400 840 Climbing Cleveland Center
06:48PM 41.6014 -81.7744 269° West 160 184 4,200 600 Climbing Cleveland Center
06:50PM 41.5738 -81.8505 246° West  Level Estimated
06:51PM 41.6017 -81.9494 248° West 161 185 6,100  Level Cleveland Center
06:53PM 41.5742 -82.0220 243° Southwest  Level Estimated
06:53PM 41.5856 -82.0711 243° Southwest 171 197 6,100  Level Cleveland Center
06:54PM 41.5619 -82.1233 239° Southwest 177 204 6,100  Level Cleveland Center
06:56PM 41.5303 -82.2050 243° Southwest  Level Estimated
06:57PM 41.4263 -82.2539 248° West  Level Estimated
06:57PM 41.4886 -82.2850 243° Southwest 170 196 6,100  Level Cleveland Center
06:58PM 41.4606 -82.3453 238° Southwest 172 198 6,000 -60 Descending Cleveland Center
07:00PM 41.4323 -82.4184 243° Southwest  Level Estimated
07:03PM 41.3750 -82.6029 243° Southwest  Level Estimated
07:07PM 41.2775 -82.8159 243° Southwest  Level Estimated
07:08PM 41.2552 -82.8726 242° Southwest  Level Estimated
07:09PM 41.2330 -82.9292 242° Southwest  Level Estimated
07:10PM 41.2107 -82.9857 242° Southwest  Level Estimated
07:11PM 41.1884 -83.0423 242° Southwest  Level Estimated
07:12PM 41.1660 -83.0987 242° Southwest  Level Estimated
07:13PM 41.1437 -83.1552 242° Southwest  Level Estimated
07:14PM 41.1213 -83.2116 242° Southwest  Level Estimated
07:15PM 41.0988 -83.2680 242° Southwest  Level Estimated
07:16PM 41.0764 -83.3243 242° Southwest  Level Estimated
07:17PM 41.0539 -83.3806 242° Southwest  Level Estimated
07:17PM 40.9986 -83.3647 242° Southwest 172 198 6,000  Level Indianapolis Center
07:18PM 41.0314 -83.4369 242° Southwest  Level Estimated
07:18PM 40.9717 -83.4181 236° Southwest 172 198 5,900  Level Indianapolis Center
07:19PM 41.0088 -83.4931 242° Southwest  Level Estimated
07:19PM 40.9475 -83.4731 240° Southwest 173 199 6,000  Level Indianapolis Center
07:20PM 40.9863 -83.5492 242° Southwest  Level Estimated
07:21PM 40.9637 -83.6054 242° Southwest  Level Estimated
07:21PM 40.9189 -83.5489 245° Southwest  Level Estimated
07:22PM 40.9411 -83.6615 242° Southwest  Level Estimated
07:22PM 40.8689 -83.6353 243° Southwest 174 200 6,000  Level Indianapolis Center
07:23PM 40.9184 -83.7176 242° Southwest  Level Estimated
07:23PM 40.8386 -83.6994 238° Southwest 175 201 6,000  Level Indianapolis Center
07:24PM 40.8136 -83.7525 238° Southwest 172 198 6,000  Level Indianapolis Center
07:26PM 40.7894 -83.8178 236° Southwest  Level Estimated
07:26PM 40.7589 -83.8606 236° Southwest 175 201 6,000  Level Indianapolis Center
07:27PM 40.7336 -83.9161 239° Southwest 174 200 5,900 -60 Descending Indianapolis Center
07:28PM 40.7199 -83.9152 243° Southwest  Level FlightAware Approximate
07:28PM 40.7056 -83.9706 236° Southwest 176 203 5,900  Level Indianapolis Center
07:29PM 40.6886 -83.9986 231° Southwest 176 203 5,900  Level Indianapolis Center
07:29PM 40.6772 -84.0239 239° Southwest 177 204 5,900 60 Level Indianapolis Center
07:30PM 40.6564 -84.0658 237° Southwest 177 204 6,000  Climbing Indianapolis Center
07:31PM 40.6319 -84.1094 234° Southwest 179 206 5,900 -120 Descending Indianapolis Center
07:32PM 40.6158 -84.1394 235° Southwest 176 203 5,900  Level Indianapolis Center
07:32PM 40.6003 -84.1658 232° Southwest 179 206 5,900  Level Indianapolis Center
07:33PM 40.5875 -84.1944 240° Southwest 178 205 5,900  Level Indianapolis Center
07:33PM 40.5711 -84.2194 229° Southwest 178 205 5,900  Level Indianapolis Center
07:34PM 40.5581 -84.2481 239° Southwest 179 206 5,900  Level Indianapolis Center
07:34PM 40.5456 -84.2767 240° Southwest 181 208 5,900  Level Indianapolis Center
07:35PM 40.5314 -84.3044 236° Southwest 180 207 5,900 60 Level Indianapolis Center
07:35PM 40.5158 -84.3356 237° Southwest 180 207 6,000  Climbing Indianapolis Center
07:36PM 40.5025 -84.3600 234° Southwest 181 208 5,900  Descending Indianapolis Center
07:36PM 40.4864 -84.3892 234° Southwest 184 212 6,000 60 Climbing Indianapolis Center
07:37PM 40.4728 -84.4153 236° Southwest 182 209 6,000  Level Indianapolis Center
07:37PM 40.4569 -84.4428 233° Southwest 184 212 6,000 -120 Level Indianapolis Center
07:38PM 40.4297 -84.4939 235° Southwest 184 212 5,900  Descending Indianapolis Center
07:39PM 40.4147 -84.5258 238° Southwest 182 209 6,000  Climbing Indianapolis Center
07:40PM 40.3847 -84.5819 235° Southwest 184 212 6,000  Level Indianapolis Center
07:40PM 40.3728 -84.6039 234° Southwest 183 211 6,000  Level Indianapolis Center
07:41PM 40.3558 -84.6381 237° Southwest 185 213 6,000  Level Indianapolis Center
07:42PM 40.3236 -84.7022 237° Southwest 181 208 6,000  Level Indianapolis Center
07:44PM 40.2675 -84.8136 237° Southwest 180 207 6,000  Level Indianapolis Center
07:45PM 40.2375 -84.8689 235° Southwest 182 209 6,000 -60 Level Indianapolis Center
07:46PM 40.2081 -84.9225 234° Southwest 181 208 5,900 -60 Descending Indianapolis Center
07:47PM 40.1775 -84.9750 233° Southwest 181 208 5,900  Level Indianapolis Center
07:48PM 40.1475 -85.0269 233° Southwest 180 207 6,000  Climbing Indianapolis Center
07:48PM 40.1386 -85.0442 236° Southwest 180 207 5,900 -120 Descending Indianapolis Center
07:49PM 40.1175 -85.0794 232° Southwest 181 208 5,900  Level Indianapolis Center
07:49PM 40.1064 -85.1022 237° Southwest 180 207 5,900  Level Indianapolis Center
07:50PM 40.0883 -85.1319 232° Southwest 180 207 5,900  Level Indianapolis Center
07:51PM 40.0517 -85.1964 233° Southwest 182 209 5,900  Level Indianapolis Center
07:52PM 40.0406 -85.2642 258° West 186 214 5,900  Level Indianapolis Center
07:54PM 40.0164 -85.3975 257° West 189 217 6,000  Climbing Indianapolis Center
07:55PM 40.0025 -85.4631 255° West 189 217 6,000  Level Indianapolis Center
07:56PM 39.9892 -85.5292 255° West 189 217 6,000  Level Indianapolis Center
07:57PM 39.9764 -85.5958 256° West 189 217 6,000  Level Indianapolis Center
07:59PM 39.9500 -85.7167 254° West 190 219 6,000  Level Indianapolis TRACON
07:59PM 39.9475 -85.7422 263° West 190 219 6,000 -120 Level Indianapolis Center
08:00PM 39.9339 -85.8089 255° West 191 220 5,900 -480 Descending Indianapolis Center
08:02PM 39.9000 -85.9333 250° West 207 238 4,800 -720 Descending Indianapolis TRACON
08:03PM 39.8833 -86.0167 255° West 205 236 3,900 -840 Descending Indianapolis TRACON
08:04PM 39.8722 -86.0903 259° West 204 235 2,900 -540 Descending Indianapolis Center
08:05PM 39.8667 -86.1500 263° West 177 204 2,900 -60 Level Indianapolis TRACON
08:07PM 39.8471 -86.2136 248° West  Level FlightAware Approximate
08:14PM 39.8167 -86.2833 90° East  Level FlightAware Approximate
08:15PM 39.8308 -86.2944 90° East  Level Estimated
08:16PM 39.8308 -86.2944 90° East  Level Estimated
08:17PM 39.8308 -86.2944 90° East  Level Estimated
08:18PM 39.8308 -86.2944 90° East  Level Estimated
08:19PM 39.8308 -86.2944 90° East  Level Estimated
08:20PM 39.8308 -86.2944 90° East  Level Estimated
08:20PM 39.8833 -86.2833 360° North 132 152 2,200  Level Indianapolis TRACON
08:21PM 39.8308 -86.2944 90° East  Level Estimated
08:22PM 39.8308 -86.2944 90° East  Level Estimated
08:22PM 39.8308 -86.2944 90° East  Level Estimated
08:23PM 39.8308 -86.2944 90° East  Level Estimated
08:24PM 39.8308 -86.2944 90° East  Level Estimated
08:25PM 39.8308 -86.2944 90° East  Level Estimated